aviador You're here:

EPLB Decoded Metar

in
Report Time2018-02-20 03:00:00
UTC Time2018-02-20 03:20:55
Flight Rules vfr VFR
WindCalm
Visibility8000 m
Phenomena:N/A
Clouds:N/A
CeilingNone
Temp-8°C
Dew Point-8°C (100% RH)
AAT-10.9°C
QNH1022 hPa
Raw Report
EPLB 200300Z 00000KT 8000 NSC M08/M08 Q1022=

Extra information for EPLB:More info

Social comments